Powers, Michigan
Current Conditions -  °F | °C
As of 10:35 AM on Monday 24 Nov 2014 (Local Time) from KESC Reporting Station
Overcast Overcast  
Wind Chill:   Ceiling: 900
Heat Index:   Visibility: 10mi
Dew Point:   Wind: 9mph
Humidity: 81%   Direction: 350°N
Pressure: 29.03"   Gusts: 21mph
Location:  45.69°N, 87.53°W
Report Text: KESC 241635Z AUTO 35008G18KT 330V030 10SM BKN009 OVC013 05/02 A2903 RMK AO1
Loading
Personal Weather Stations






























Interactive Weather Map New forecast layout! Learn more

10-Day Weather Forecast

Advertisements
Track Severe Weather on mobile